sensor_id;sensor_type;location;lat;lon;timestamp;temperature;humidity
45343;DHT22;31077;50.872;4.352;2022-12-07T00:01:17;22.40;39.50
45343;DHT22;31077;50.872;4.352;2022-12-07T00:03:46;22.50;39.60
45343;DHT22;31077;50.872;4.352;2022-12-07T00:06:14;22.40;39.50
45343;DHT22;31077;50.872;4.352;2022-12-07T00:08:40;23.40;40.00
45343;DHT22;31077;50.872;4.352;2022-12-07T00:11:08;22.30;39.40
45343;DHT22;31077;50.872;4.352;2022-12-07T00:13:35;22.30;39.50
45343;DHT22;31077;50.872;4.352;2022-12-07T00:18:31;22.40;39.40
45343;DHT22;31077;50.872;4.352;2022-12-07T00:21:10;22.40;39.50
45343;DHT22;31077;50.872;4.352;2022-12-07T00:23:35;22.40;39.50
45343;DHT22;31077;50.872;4.352;2022-12-07T00:26:16;22.30;39.40
45343;DHT22;31077;50.872;4.352;2022-12-07T00:28:50;22.40;39.50
45343;DHT22;31077;50.872;4.352;2022-12-07T00:31:18;22.40;39.50
45343;DHT22;31077;50.872;4.352;2022-12-07T00:33:44;22.50;39.50
45343;DHT22;31077;50.872;4.352;2022-12-07T00:36:13;22.50;39.40
45343;DHT22;31077;50.872;4.352;2022-12-07T00:38:39;22.40;39.40
45343;DHT22;31077;50.872;4.352;2022-12-07T00:41:09;22.40;39.50
45343;DHT22;31077;50.872;4.352;2022-12-07T00:43:35;22.40;39.50
45343;DHT22;31077;50.872;4.352;2022-12-07T00:46:04;21.50;39.00
45343;DHT22;31077;50.872;4.352;2022-12-07T00:48:39;22.40;39.50
45343;DHT22;31077;50.872;4.352;2022-12-07T00:51:06;22.40;39.50
45343;DHT22;31077;50.872;4.352;2022-12-07T00:53:37;22.40;39.50
45343;DHT22;31077;50.872;4.352;2022-12-07T00:56:10;22.40;39.50
45343;DHT22;31077;50.872;4.352;2022-12-07T00:58:36;22.40;39.50
45343;DHT22;31077;50.872;4.352;2022-12-07T01:01:04;22.40;39.40
45343;DHT22;31077;50.872;4.352;2022-12-07T01:03:31;23.90;40.30
45343;DHT22;31077;50.872;4.352;2022-12-07T01:05:58;22.50;39.50
45343;DHT22;31077;50.872;4.352;2022-12-07T01:08:31;22.50;39.50
45343;DHT22;31077;50.872;4.352;2022-12-07T01:11:06;22.10;39.30
45343;DHT22;31077;50.872;4.352;2022-12-07T01:13:34;22.50;39.50
45343;DHT22;31077;50.872;4.352;2022-12-07T01:16:04;22.30;39.40
45343;DHT22;31077;50.872;4.352;2022-12-07T01:18:35;22.50;39.40
45343;DHT22;31077;50.872;4.352;2022-12-07T01:21:22;22.40;39.40
45343;DHT22;31077;50.872;4.352;2022-12-07T01:23:49;22.50;39.40
45343;DHT22;31077;50.872;4.352;2022-12-07T01:26:17;22.50;39.40
45343;DHT22;31077;50.872;4.352;2022-12-07T01:28:46;22.50;39.40
45343;DHT22;31077;50.872;4.352;2022-12-07T01:31:19;22.40;39.20
45343;DHT22;31077;50.872;4.352;2022-12-07T01:33:48;21.20;38.60
45343;DHT22;31077;50.872;4.352;2022-12-07T01:36:19;22.50;39.30
45343;DHT22;31077;50.872;4.352;2022-12-07T01:38:47;22.40;39.20
45343;DHT22;31077;50.872;4.352;2022-12-07T01:41:14;22.10;39.10
45343;DHT22;31077;50.872;4.352;2022-12-07T01:44:10;22.40;39.20
45343;DHT22;31077;50.872;4.352;2022-12-07T01:46:37;22.40;39.20
45343;DHT22;31077;50.872;4.352;2022-12-07T01:49:04;22.40;39.10
45343;DHT22;31077;50.872;4.352;2022-12-07T01:51:30;22.40;39.20
45343;DHT22;31077;50.872;4.352;2022-12-07T01:53:56;21.70;38.80
45343;DHT22;31077;50.872;4.352;2022-12-07T01:56:25;22.40;39.10
45343;DHT22;31077;50.872;4.352;2022-12-07T01:58:52;22.50;39.20
45343;DHT22;31077;50.872;4.352;2022-12-07T02:01:20;22.40;39.10
45343;DHT22;31077;50.872;4.352;2022-12-07T02:03:47;23.60;39.70
45343;DHT22;31077;50.872;4.352;2022-12-07T02:06:17;21.10;38.40
45343;DHT22;31077;50.872;4.352;2022-12-07T02:08:45;21.30;38.50
45343;DHT22;31077;50.872;4.352;2022-12-07T02:11:11;22.40;39.10
45343;DHT22;31077;50.872;4.352;2022-12-07T02:13:39;22.40;39.00
45343;DHT22;31077;50.872;4.352;2022-12-07T02:25:09;22.50;39.10
45343;DHT22;31077;50.872;4.352;2022-12-07T02:27:47;22.40;39.10
45343;DHT22;31077;50.872;4.352;2022-12-07T02:30:22;22.40;39.10
45343;DHT22;31077;50.872;4.352;2022-12-07T02:32:59;22.30;39.00
45343;DHT22;31077;50.872;4.352;2022-12-07T02:35:36;22.30;39.00
45343;DHT22;31077;50.872;4.352;2022-12-07T02:38:20;22.30;39.10
45343;DHT22;31077;50.872;4.352;2022-12-07T02:41:02;22.40;39.10
45343;DHT22;31077;50.872;4.352;2022-12-07T02:43:43;23.30;39.60
45343;DHT22;31077;50.872;4.352;2022-12-07T02:46:14;22.30;39.10
45343;DHT22;31077;50.872;4.352;2022-12-07T02:48:41;21.20;38.50
45343;DHT22;31077;50.872;4.352;2022-12-07T02:51:11;22.30;39.00
45343;DHT22;31077;50.872;4.352;2022-12-07T02:53:42;22.40;39.10
45343;DHT22;31077;50.872;4.352;2022-12-07T03:02:05;22.40;39.20
45343;DHT22;31077;50.872;4.352;2022-12-07T03:13:28;21.30;38.60
45343;DHT22;31077;50.872;4.352;2022-12-07T03:16:26;22.40;39.20
45343;DHT22;31077;50.872;4.352;2022-12-07T03:19:14;22.30;39.10
45343;DHT22;31077;50.872;4.352;2022-12-07T03:21:47;22.30;39.10
45343;DHT22;31077;50.872;4.352;2022-12-07T03:24:18;22.30;39.10
45343;DHT22;31077;50.872;4.352;2022-12-07T03:26:50;22.20;39.10
45343;DHT22;31077;50.872;4.352;2022-12-07T03:29:44;22.30;39.10
45343;DHT22;31077;50.872;4.352;2022-12-07T03:32:36;23.00;39.50
45343;DHT22;31077;50.872;4.352;2022-12-07T03:35:31;22.40;39.20
45343;DHT22;31077;50.872;4.352;2022-12-07T03:40:54;22.30;39.10
45343;DHT22;31077;50.872;4.352;2022-12-07T03:43:31;22.30;39.00
45343;DHT22;31077;50.872;4.352;2022-12-07T03:46:19;22.20;39.00
45343;DHT22;31077;50.872;4.352;2022-12-07T03:51:27;22.30;39.10
45343;DHT22;31077;50.872;4.352;2022-12-07T03:54:07;20.90;38.30
45343;DHT22;31077;50.872;4.352;2022-12-07T03:56:35;22.40;39.00
45343;DHT22;31077;50.872;4.352;2022-12-07T03:59:01;22.30;39.00
45343;DHT22;31077;50.872;4.352;2022-12-07T04:01:27;21.60;38.50
45343;DHT22;31077;50.872;4.352;2022-12-07T04:03:56;22.40;39.00
45343;DHT22;31077;50.872;4.352;2022-12-07T04:06:22;22.40;38.90
45343;DHT22;31077;50.872;4.352;2022-12-07T04:08:47;22.40;39.00
45343;DHT22;31077;50.872;4.352;2022-12-07T04:11:13;22.40;39.00
45343;DHT22;31077;50.872;4.352;2022-12-07T04:13:40;20.70;38.60
45343;DHT22;31077;50.872;4.352;2022-12-07T04:16:24;22.40;38.90
45343;DHT22;31077;50.872;4.352;2022-12-07T04:18:49;21.70;38.50
45343;DHT22;31077;50.872;4.352;2022-12-07T04:21:18;22.80;39.10
45343;DHT22;31077;50.872;4.352;2022-12-07T04:23:44;22.40;38.80
45343;DHT22;31077;50.872;4.352;2022-12-07T04:26:13;21.70;38.50
45343;DHT22;31077;50.872;4.352;2022-12-07T04:28:39;21.00;38.00
45343;DHT22;31077;50.872;4.352;2022-12-07T04:31:04;22.30;38.80
45343;DHT22;31077;50.872;4.352;2022-12-07T04:33:30;22.00;38.50
45343;DHT22;31077;50.872;4.352;2022-12-07T04:35:56;22.30;38.70
45343;DHT22;31077;50.872;4.352;2022-12-07T04:38:22;22.90;39.00
45343;DHT22;31077;50.872;4.352;2022-12-07T04:40:48;22.50;38.80
45343;DHT22;31077;50.872;4.352;2022-12-07T04:43:14;22.30;38.60
45343;DHT22;31077;50.872;4.352;2022-12-07T04:45:46;22.30;38.60
45343;DHT22;31077;50.872;4.352;2022-12-07T04:48:11;22.40;38.70
45343;DHT22;31077;50.872;4.352;2022-12-07T04:50:37;21.90;38.30
45343;DHT22;31077;50.872;4.352;2022-12-07T04:53:03;21.30;38.00
45343;DHT22;31077;50.872;4.352;2022-12-07T04:55:29;22.40;38.50
45343;DHT22;31077;50.872;4.352;2022-12-07T04:57:55;22.30;38.50
45343;DHT22;31077;50.872;4.352;2022-12-07T05:00:21;22.40;38.60
45343;DHT22;31077;50.872;4.352;2022-12-07T05:02:47;22.40;38.70
45343;DHT22;31077;50.872;4.352;2022-12-07T05:05:12;22.40;39.20
45343;DHT22;31077;50.872;4.352;2022-12-07T05:07:38;21.20;38.00
45343;DHT22;31077;50.872;4.352;2022-12-07T05:10:05;22.30;38.60
45343;DHT22;31077;50.872;4.352;2022-12-07T05:12:31;22.30;38.70
45343;DHT22;31077;50.872;4.352;2022-12-07T05:14:56;22.30;38.60
45343;DHT22;31077;50.872;4.352;2022-12-07T05:17:23;22.30;38.50
45343;DHT22;31077;50.872;4.352;2022-12-07T05:19:49;22.40;38.50
45343;DHT22;31077;50.872;4.352;2022-12-07T05:22:15;22.30;38.50
45343;DHT22;31077;50.872;4.352;2022-12-07T05:24:40;22.30;38.40
45343;DHT22;31077;50.872;4.352;2022-12-07T05:27:06;22.40;38.50
45343;DHT22;31077;50.872;4.352;2022-12-07T05:29:32;22.40;38.40
45343;DHT22;31077;50.872;4.352;2022-12-07T05:31:58;23.30;39.00
45343;DHT22;31077;50.872;4.352;2022-12-07T05:34:24;22.40;38.40
45343;DHT22;31077;50.872;4.352;2022-12-07T05:36:49;22.40;38.40
45343;DHT22;31077;50.872;4.352;2022-12-07T05:39:15;22.30;38.40
45343;DHT22;31077;50.872;4.352;2022-12-07T05:41:41;22.30;38.40
45343;DHT22;31077;50.872;4.352;2022-12-07T05:44:25;22.40;38.50
45343;DHT22;31077;50.872;4.352;2022-12-07T05:46:51;22.40;38.40
45343;DHT22;31077;50.872;4.352;2022-12-07T05:49:17;22.30;38.30
45343;DHT22;31077;50.872;4.352;2022-12-07T05:51:43;21.00;37.70
45343;DHT22;31077;50.872;4.352;2022-12-07T05:54:09;22.30;38.30
45343;DHT22;31077;50.872;4.352;2022-12-07T05:56:35;22.30;38.40
45343;DHT22;31077;50.872;4.352;2022-12-07T05:59:01;22.40;38.40
45343;DHT22;31077;50.872;4.352;2022-12-07T06:01:45;22.40;38.40
45343;DHT22;31077;50.872;4.352;2022-12-07T06:04:11;22.30;38.30
45343;DHT22;31077;50.872;4.352;2022-12-07T06:06:37;22.30;38.30
45343;DHT22;31077;50.872;4.352;2022-12-07T06:09:04;22.30;38.30
45343;DHT22;31077;50.872;4.352;2022-12-07T06:11:30;22.40;38.40
45343;DHT22;31077;50.872;4.352;2022-12-07T06:14:14;22.40;38.30
45343;DHT22;31077;50.872;4.352;2022-12-07T06:16:40;22.30;38.30
45343;DHT22;31077;50.872;4.352;2022-12-07T06:19:06;22.40;38.40
45343;DHT22;31077;50.872;4.352;2022-12-07T06:21:32;22.30;38.30
45343;DHT22;31077;50.872;4.352;2022-12-07T06:23:58;21.20;37.80
45343;DHT22;31077;50.872;4.352;2022-12-07T06:26:24;22.40;38.40
45343;DHT22;31077;50.872;4.352;2022-12-07T06:28:49;22.30;38.30
45343;DHT22;31077;50.872;4.352;2022-12-07T06:31:15;22.30;38.30
45343;DHT22;31077;50.872;4.352;2022-12-07T06:33:41;22.40;38.50
45343;DHT22;31077;50.872;4.352;2022-12-07T06:36:08;22.40;38.50
45343;DHT22;31077;50.872;4.352;2022-12-07T06:38:34;22.40;38.50
45343;DHT22;31077;50.872;4.352;2022-12-07T06:41:00;22.30;38.40
45343;DHT22;31077;50.872;4.352;2022-12-07T06:43:26;22.30;38.50
45343;DHT22;31077;50.872;4.352;2022-12-07T06:45:52;21.90;38.30
45343;DHT22;31077;50.872;4.352;2022-12-07T06:48:18;22.20;38.50
45343;DHT22;31077;50.872;4.352;2022-12-07T06:50:45;22.30;38.40
45343;DHT22;31077;50.872;4.352;2022-12-07T06:53:11;22.30;38.50
45343;DHT22;31077;50.872;4.352;2022-12-07T06:55:41;22.30;38.40
45343;DHT22;31077;50.872;4.352;2022-12-07T06:58:09;22.20;38.40
45343;DHT22;31077;50.872;4.352;2022-12-07T07:00:35;22.30;38.40
45343;DHT22;31077;50.872;4.352;2022-12-07T07:03:01;22.20;39.00
45343;DHT22;31077;50.872;4.352;2022-12-07T07:05:29;22.20;38.40
45343;DHT22;31077;50.872;4.352;2022-12-07T07:07:55;22.20;38.40
45343;DHT22;31077;50.872;4.352;2022-12-07T07:10:21;22.30;38.30
45343;DHT22;31077;50.872;4.352;2022-12-07T07:12:46;22.20;38.50
45343;DHT22;31077;50.872;4.352;2022-12-07T07:15:12;22.30;38.50
45343;DHT22;31077;50.872;4.352;2022-12-07T07:17:38;22.30;38.40
45343;DHT22;31077;50.872;4.352;2022-12-07T07:20:04;22.20;38.20
45343;DHT22;31077;50.872;4.352;2022-12-07T07:22:30;22.20;38.20
45343;DHT22;31077;50.872;4.352;2022-12-07T07:24:56;22.30;38.10
45343;DHT22;31077;50.872;4.352;2022-12-07T07:27:22;22.20;38.00
45343;DHT22;31077;50.872;4.352;2022-12-07T07:29:48;22.30;38.00
45343;DHT22;31077;50.872;4.352;2022-12-07T07:32:13;22.20;37.80
45343;DHT22;31077;50.872;4.352;2022-12-07T07:34:40;22.30;37.80
45343;DHT22;31077;50.872;4.352;2022-12-07T07:37:05;22.20;37.70
45343;DHT22;31077;50.872;4.352;2022-12-07T07:39:31;22.30;37.70
45343;DHT22;31077;50.872;4.352;2022-12-07T07:41:57;22.20;37.70
45343;DHT22;31077;50.872;4.352;2022-12-07T07:44:22;22.20;37.70
45343;DHT22;31077;50.872;4.352;2022-12-07T07:46:48;22.30;37.70
45343;DHT22;31077;50.872;4.352;2022-12-07T07:49:14;22.20;37.60
45343;DHT22;31077;50.872;4.352;2022-12-07T07:51:40;22.30;37.60
45343;DHT22;31077;50.872;4.352;2022-12-07T07:54:05;22.20;37.60
45343;DHT22;31077;50.872;4.352;2022-12-07T07:56:31;22.30;37.70
45343;DHT22;31077;50.872;4.352;2022-12-07T07:58:57;22.20;37.60
45343;DHT22;31077;50.872;4.352;2022-12-07T08:01:23;22.30;37.60
45343;DHT22;31077;50.872;4.352;2022-12-07T08:03:49;22.30;37.60
45343;DHT22;31077;50.872;4.352;2022-12-07T08:06:15;22.30;37.60
45343;DHT22;31077;50.872;4.352;2022-12-07T08:08:41;22.20;37.50
45343;DHT22;31077;50.872;4.352;2022-12-07T08:11:08;22.20;37.50
45343;DHT22;31077;50.872;4.352;2022-12-07T08:13:35;22.20;37.50
45343;DHT22;31077;50.872;4.352;2022-12-07T08:16:06;22.20;37.50
45343;DHT22;31077;50.872;4.352;2022-12-07T08:18:38;22.30;37.50
45343;DHT22;31077;50.872;4.352;2022-12-07T08:21:05;22.20;37.50
45343;DHT22;31077;50.872;4.352;2022-12-07T08:23:35;22.20;37.40
45343;DHT22;31077;50.872;4.352;2022-12-07T08:26:02;22.20;37.40
45343;DHT22;31077;50.872;4.352;2022-12-07T08:28:29;22.30;37.50
45343;DHT22;31077;50.872;4.352;2022-12-07T08:31:00;22.40;37.50
45343;DHT22;31077;50.872;4.352;2022-12-07T08:33:26;22.20;37.40
45343;DHT22;31077;50.872;4.352;2022-12-07T08:35:52;22.30;37.40
45343;DHT22;31077;50.872;4.352;2022-12-07T08:38:17;22.30;37.40
45343;DHT22;31077;50.872;4.352;2022-12-07T08:40:43;22.20;37.30
45343;DHT22;31077;50.872;4.352;2022-12-07T08:43:09;22.20;37.30
45343;DHT22;31077;50.872;4.352;2022-12-07T08:45:35;22.30;37.40
45343;DHT22;31077;50.872;4.352;2022-12-07T08:48:07;22.30;37.30
45343;DHT22;31077;50.872;4.352;2022-12-07T08:50:34;22.20;37.40
45343;DHT22;31077;50.872;4.352;2022-12-07T08:53:01;22.20;37.40
45343;DHT22;31077;50.872;4.352;2022-12-07T08:55:28;22.30;37.40
45343;DHT22;31077;50.872;4.352;2022-12-07T08:57:55;22.40;37.40
45343;DHT22;31077;50.872;4.352;2022-12-07T09:00:22;22.30;37.40
45343;DHT22;31077;50.872;4.352;2022-12-07T09:02:48;22.30;37.30
45343;DHT22;31077;50.872;4.352;2022-12-07T09:05:14;22.30;37.30
45343;DHT22;31077;50.872;4.352;2022-12-07T09:07:49;22.30;37.40
45343;DHT22;31077;50.872;4.352;2022-12-07T09:10:17;22.20;37.30
45343;DHT22;31077;50.872;4.352;2022-12-07T09:12:43;22.30;37.30
45343;DHT22;31077;50.872;4.352;2022-12-07T09:15:09;22.20;37.30
45343;DHT22;31077;50.872;4.352;2022-12-07T09:17:35;22.30;37.30
45343;DHT22;31077;50.872;4.352;2022-12-07T09:20:02;22.20;37.40
45343;DHT22;31077;50.872;4.352;2022-12-07T09:22:29;22.30;37.40
45343;DHT22;31077;50.872;4.352;2022-12-07T09:24:57;22.30;37.40
45343;DHT22;31077;50.872;4.352;2022-12-07T09:27:23;22.30;37.40
45343;DHT22;31077;50.872;4.352;2022-12-07T09:29:49;20.70;36.60
45343;DHT22;31077;50.872;4.352;2022-12-07T09:32:14;22.30;37.40
45343;DHT22;31077;50.872;4.352;2022-12-07T09:34:40;22.30;37.40
45343;DHT22;31077;50.872;4.352;2022-12-07T09:37:06;22.20;37.40
45343;DHT22;31077;50.872;4.352;2022-12-07T09:39:32;23.40;38.00
45343;DHT22;31077;50.872;4.352;2022-12-07T09:41:59;22.30;37.40
45343;DHT22;31077;50.872;4.352;2022-12-07T09:44:28;22.30;37.50
45343;DHT22;31077;50.872;4.352;2022-12-07T09:46:55;22.20;37.50
45343;DHT22;31077;50.872;4.352;2022-12-07T09:49:27;22.30;37.50
45343;DHT22;31077;50.872;4.352;2022-12-07T09:52:26;22.40;37.60
45343;DHT22;31077;50.872;4.352;2022-12-07T09:54:53;22.30;37.60
45343;DHT22;31077;50.872;4.352;2022-12-07T09:57:31;22.20;37.50
45343;DHT22;31077;50.872;4.352;2022-12-07T10:00:02;22.30;37.60
45343;DHT22;31077;50.872;4.352;2022-12-07T10:02:36;22.30;37.60
45343;DHT22;31077;50.872;4.352;2022-12-07T10:05:05;22.20;37.60
45343;DHT22;31077;50.872;4.352;2022-12-07T10:07:31;22.30;37.70
45343;DHT22;31077;50.872;4.352;2022-12-07T10:09:57;22.30;37.60
45343;DHT22;31077;50.872;4.352;2022-12-07T10:12:22;22.30;37.60
45343;DHT22;31077;50.872;4.352;2022-12-07T10:17:41;22.30;37.70
45343;DHT22;31077;50.872;4.352;2022-12-07T10:23:04;22.30;37.70
45343;DHT22;31077;50.872;4.352;2022-12-07T10:25:33;22.30;37.80
45343;DHT22;31077;50.872;4.352;2022-12-07T10:28:11;22.30;37.80
45343;DHT22;31077;50.872;4.352;2022-12-07T10:31:00;22.30;37.80
45343;DHT22;31077;50.872;4.352;2022-12-07T10:35:56;22.20;37.70
45343;DHT22;31077;50.872;4.352;2022-12-07T10:38:25;22.20;37.80
45343;DHT22;31077;50.872;4.352;2022-12-07T10:41:04;20.80;37.00
45343;DHT22;31077;50.872;4.352;2022-12-07T10:43:30;22.30;37.90
45343;DHT22;31077;50.872;4.352;2022-12-07T10:56:53;22.30;38.00
45343;DHT22;31077;50.872;4.352;2022-12-07T11:10:18;21.30;37.50
45343;DHT22;31077;50.872;4.352;2022-12-07T11:18:39;22.20;38.00
45343;DHT22;31077;50.872;4.352;2022-12-07T11:24:11;22.30;38.10
45343;DHT22;31077;50.872;4.352;2022-12-07T11:32:14;22.20;38.60
45343;DHT22;31077;50.872;4.352;2022-12-07T11:37:51;22.30;38.00
45343;DHT22;31077;50.872;4.352;2022-12-07T11:40:30;22.30;38.10
45343;DHT22;31077;50.872;4.352;2022-12-07T11:43:04;22.30;38.10
45343;DHT22;31077;50.872;4.352;2022-12-07T11:45:33;22.20;38.00
45343;DHT22;31077;50.872;4.352;2022-12-07T11:48:03;22.30;38.70
45343;DHT22;31077;50.872;4.352;2022-12-07T11:50:37;22.20;38.00
45343;DHT22;31077;50.872;4.352;2022-12-07T11:53:14;22.30;38.10
45343;DHT22;31077;50.872;4.352;2022-12-07T11:56:01;22.30;38.10
45343;DHT22;31077;50.872;4.352;2022-12-07T12:06:36;22.40;38.20
45343;DHT22;31077;50.872;4.352;2022-12-07T12:09:12;21.10;37.50
45343;DHT22;31077;50.872;4.352;2022-12-07T12:23:00;22.30;38.10
45343;DHT22;31077;50.872;4.352;2022-12-07T12:25:36;22.40;38.20
45343;DHT22;31077;50.872;4.352;2022-12-07T12:28:03;22.30;38.10
45343;DHT22;31077;50.872;4.352;2022-12-07T12:33:25;22.40;38.00
45343;DHT22;31077;50.872;4.352;2022-12-07T12:47:37;22.40;38.00
45343;DHT22;31077;50.872;4.352;2022-12-07T12:50:23;22.30;38.00
45343;DHT22;31077;50.872;4.352;2022-12-07T12:58:31;22.20;37.90
45343;DHT22;31077;50.872;4.352;2022-12-07T13:04:27;22.30;38.00
45343;DHT22;31077;50.872;4.352;2022-12-07T13:06:54;22.30;37.90
45343;DHT22;31077;50.872;4.352;2022-12-07T13:09:23;22.20;37.90
45343;DHT22;31077;50.872;4.352;2022-12-07T13:12:00;22.30;38.00
45343;DHT22;31077;50.872;4.352;2022-12-07T13:15:02;22.30;38.00
45343;DHT22;31077;50.872;4.352;2022-12-07T13:19:58;22.30;37.90
45343;DHT22;31077;50.872;4.352;2022-12-07T13:25:07;22.40;38.00
45343;DHT22;31077;50.872;4.352;2022-12-07T13:27:37;22.40;38.10
45343;DHT22;31077;50.872;4.352;2022-12-07T13:30:15;22.40;38.10
45343;DHT22;31077;50.872;4.352;2022-12-07T13:32:42;22.30;38.00
45343;DHT22;31077;50.872;4.352;2022-12-07T13:37:54;22.30;37.90
45343;DHT22;31077;50.872;4.352;2022-12-07T13:40:22;22.30;38.00
45343;DHT22;31077;50.872;4.352;2022-12-07T13:43:00;22.30;38.00
45343;DHT22;31077;50.872;4.352;2022-12-07T13:45:27;22.40;38.00
45343;DHT22;31077;50.872;4.352;2022-12-07T13:50:55;22.30;38.00
45343;DHT22;31077;50.872;4.352;2022-12-07T13:53:24;22.40;38.00
45343;DHT22;31077;50.872;4.352;2022-12-07T13:55:53;22.30;37.90
45343;DHT22;31077;50.872;4.352;2022-12-07T13:58:19;22.30;37.80
45343;DHT22;31077;50.872;4.352;2022-12-07T14:00:45;22.30;37.80
45343;DHT22;31077;50.872;4.352;2022-12-07T14:05:37;22.30;37.80
45343;DHT22;31077;50.872;4.352;2022-12-07T14:08:20;22.40;37.80
45343;DHT22;31077;50.872;4.352;2022-12-07T14:13:35;22.30;37.80
45343;DHT22;31077;50.872;4.352;2022-12-07T14:16:15;22.30;37.80
45343;DHT22;31077;50.872;4.352;2022-12-07T14:18:43;22.40;37.90
45343;DHT22;31077;50.872;4.352;2022-12-07T14:23:36;22.30;37.70
45343;DHT22;31077;50.872;4.352;2022-12-07T14:26:12;22.30;37.70
45343;DHT22;31077;50.872;4.352;2022-12-07T14:28:39;22.30;37.80
45343;DHT22;31077;50.872;4.352;2022-12-07T14:31:14;22.30;37.80
45343;DHT22;31077;50.872;4.352;2022-12-07T14:33:40;22.30;37.80
45343;DHT22;31077;50.872;4.352;2022-12-07T14:36:10;22.30;37.70
45343;DHT22;31077;50.872;4.352;2022-12-07T14:38:36;22.40;37.80
45343;DHT22;31077;50.872;4.352;2022-12-07T14:41:04;22.30;37.80
45343;DHT22;31077;50.872;4.352;2022-12-07T14:43:54;22.40;37.90
45343;DHT22;31077;50.872;4.352;2022-12-07T14:46:20;22.40;38.40
45343;DHT22;31077;50.872;4.352;2022-12-07T14:48:45;22.30;37.70
45343;DHT22;31077;50.872;4.352;2022-12-07T14:51:12;22.30;37.80
45343;DHT22;31077;50.872;4.352;2022-12-07T14:53:43;22.30;37.80
45343;DHT22;31077;50.872;4.352;2022-12-07T14:56:10;22.20;37.70
45343;DHT22;31077;50.872;4.352;2022-12-07T14:58:36;22.30;37.70
45343;DHT22;31077;50.872;4.352;2022-12-07T15:01:01;22.30;37.70
45343;DHT22;31077;50.872;4.352;2022-12-07T15:03:27;22.30;37.60
45343;DHT22;31077;50.872;4.352;2022-12-07T15:05:53;22.30;37.70
45343;DHT22;31077;50.872;4.352;2022-12-07T15:08:19;22.30;37.70
45343;DHT22;31077;50.872;4.352;2022-12-07T15:10:47;22.30;37.70
45343;DHT22;31077;50.872;4.352;2022-12-07T15:13:12;22.30;37.60
45343;DHT22;31077;50.872;4.352;2022-12-07T15:15:56;22.30;37.70
45343;DHT22;31077;50.872;4.352;2022-12-07T15:18:23;22.20;37.60
45343;DHT22;31077;50.872;4.352;2022-12-07T15:20:49;22.20;37.60
45343;DHT22;31077;50.872;4.352;2022-12-07T15:23:15;22.30;37.60
45343;DHT22;31077;50.872;4.352;2022-12-07T15:25:46;22.20;37.60
45343;DHT22;31077;50.872;4.352;2022-12-07T15:28:12;22.30;38.30
45343;DHT22;31077;50.872;4.352;2022-12-07T15:30:40;22.20;37.70
45343;DHT22;31077;50.872;4.352;2022-12-07T15:33:09;22.40;37.70
45343;DHT22;31077;50.872;4.352;2022-12-07T15:35:45;22.20;37.60
45343;DHT22;31077;50.872;4.352;2022-12-07T15:38:11;22.30;37.50
45343;DHT22;31077;50.872;4.352;2022-12-07T15:40:37;22.20;37.60
45343;DHT22;31077;50.872;4.352;2022-12-07T15:43:04;22.40;37.60
45343;DHT22;31077;50.872;4.352;2022-12-07T15:45:30;22.20;37.50
45343;DHT22;31077;50.872;4.352;2022-12-07T15:47:55;22.30;37.50
45343;DHT22;31077;50.872;4.352;2022-12-07T15:50:22;22.30;37.60
45343;DHT22;31077;50.872;4.352;2022-12-07T15:52:48;22.30;37.50
45343;DHT22;31077;50.872;4.352;2022-12-07T15:55:14;22.30;37.50
45343;DHT22;31077;50.872;4.352;2022-12-07T15:57:40;22.20;37.50
45343;DHT22;31077;50.872;4.352;2022-12-07T16:00:07;22.30;37.60
45343;DHT22;31077;50.872;4.352;2022-12-07T16:02:34;22.50;37.70
45343;DHT22;31077;50.872;4.352;2022-12-07T16:05:01;22.20;37.60
45343;DHT22;31077;50.872;4.352;2022-12-07T16:07:27;22.30;37.60
45343;DHT22;31077;50.872;4.352;2022-12-07T16:09:53;22.20;37.60
45343;DHT22;31077;50.872;4.352;2022-12-07T16:12:18;22.30;37.60
45343;DHT22;31077;50.872;4.352;2022-12-07T16:14:44;22.20;37.50
45343;DHT22;31077;50.872;4.352;2022-12-07T16:17:10;22.30;37.60
45343;DHT22;31077;50.872;4.352;2022-12-07T16:19:37;22.20;37.60
45343;DHT22;31077;50.872;4.352;2022-12-07T16:22:03;20.70;36.80
45343;DHT22;31077;50.872;4.352;2022-12-07T16:24:30;22.30;37.60
45343;DHT22;31077;50.872;4.352;2022-12-07T16:26:56;22.30;37.60
45343;DHT22;31077;50.872;4.352;2022-12-07T16:29:22;22.30;37.60
45343;DHT22;31077;50.872;4.352;2022-12-07T16:31:50;22.30;37.60
45343;DHT22;31077;50.872;4.352;2022-12-07T16:34:16;22.30;37.60
45343;DHT22;31077;50.872;4.352;2022-12-07T16:36:42;22.30;37.60
45343;DHT22;31077;50.872;4.352;2022-12-07T16:39:09;22.30;37.60
45343;DHT22;31077;50.872;4.352;2022-12-07T16:41:34;22.30;37.60
45343;DHT22;31077;50.872;4.352;2022-12-07T16:44:05;22.20;37.50
45343;DHT22;31077;50.872;4.352;2022-12-07T16:46:32;22.20;37.60
45343;DHT22;31077;50.872;4.352;2022-12-07T16:48:59;22.20;37.60
45343;DHT22;31077;50.872;4.352;2022-12-07T16:51:25;22.20;37.60
45343;DHT22;31077;50.872;4.352;2022-12-07T16:53:52;22.30;37.70
45343;DHT22;31077;50.872;4.352;2022-12-07T16:56:19;22.20;37.60
45343;DHT22;31077;50.872;4.352;2022-12-07T16:58:45;22.20;37.70
45343;DHT22;31077;50.872;4.352;2022-12-07T17:01:16;22.20;37.60
45343;DHT22;31077;50.872;4.352;2022-12-07T17:03:43;22.30;37.80
45343;DHT22;31077;50.872;4.352;2022-12-07T17:06:14;22.20;37.60
45343;DHT22;31077;50.872;4.352;2022-12-07T17:08:40;22.20;37.70
45343;DHT22;31077;50.872;4.352;2022-12-07T17:11:11;22.20;37.70
45343;DHT22;31077;50.872;4.352;2022-12-07T17:13:37;22.20;37.70
45343;DHT22;31077;50.872;4.352;2022-12-07T17:16:21;22.20;37.70
45343;DHT22;31077;50.872;4.352;2022-12-07T17:18:47;22.20;37.60
45343;DHT22;31077;50.872;4.352;2022-12-07T17:21:13;22.30;37.80
45343;DHT22;31077;50.872;4.352;2022-12-07T17:23:38;22.30;37.70
45343;DHT22;31077;50.872;4.352;2022-12-07T17:26:06;22.20;37.60
45343;DHT22;31077;50.872;4.352;2022-12-07T17:28:33;22.30;37.80
45343;DHT22;31077;50.872;4.352;2022-12-07T17:30:59;22.30;37.70
45343;DHT22;31077;50.872;4.352;2022-12-07T17:33:25;22.20;37.70
45343;DHT22;31077;50.872;4.352;2022-12-07T17:35:50;22.20;37.70
45343;DHT22;31077;50.872;4.352;2022-12-07T17:38:16;21.80;37.40
45343;DHT22;31077;50.872;4.352;2022-12-07T17:40:42;22.20;37.70
45343;DHT22;31077;50.872;4.352;2022-12-07T17:43:08;22.20;37.60
45343;DHT22;31077;50.872;4.352;2022-12-07T17:45:36;22.20;37.70
45343;DHT22;31077;50.872;4.352;2022-12-07T17:48:03;22.30;37.80
45343;DHT22;31077;50.872;4.352;2022-12-07T17:50:29;22.30;37.80
45343;DHT22;31077;50.872;4.352;2022-12-07T17:53:13;21.40;37.20
45343;DHT22;31077;50.872;4.352;2022-12-07T17:55:39;22.20;37.60
45343;DHT22;31077;50.872;4.352;2022-12-07T17:58:05;22.10;37.60
45343;DHT22;31077;50.872;4.352;2022-12-07T18:00:31;22.30;37.70
45343;DHT22;31077;50.872;4.352;2022-12-07T18:03:06;22.20;37.70